Terminal Aerodrome Forecast
Issued by NWS

Current Version | Previous Version | Text Only | Print | Product List | Glossary On
Versions: 1 2 3 4 5 6 7 8 9 10 11 12 13 14 15 16
950
FTUS45 KTFX 231125
TAFHVR
TAF
KHVR 231125Z 2312/2412 29010G20KT P6SM SKC
     FM231600 30010G20KT P6SM SCT090 BKN150
     FM240000 29010KT P6SM VCTS SCT070CB BKN120
     FM240300 24007KT P6SM SCT150=

USA.gov is the U.S. government's official web portal to all federal, state and local government web resources and services.